Weather at Eindhoven Airport

Public forecast

Using degrees Celsius for public forecast. Weather courtesy of forecast.io.

Current aviation weather report (METAR) for Eindhoven Airport

Retrieved 2021/09/27 06:25 UTC (1 hour ago):

EHEH 270625Z AUTO 17007KT 140V210 9999 SCT057 SCT062 OVC210 16/15 Q1013 BLU NOSIG

Aviation forecast (TAF) for Eindhoven Airport

Retrieved 2021/09/27 06:00 UTC (2 hours ago):

TAF EHEH 270533Z 2706/2812 16007KT 9999 BKN040 PROB30 TEMPO 2705/2709 FEW008 BKN012 BECMG 2708/2710 19012G22KT BECMG 2712/2715 25012G22KT -RA FEW025 SCT030 BKN050 TEMPO 2715/2717 28016G30KT 2500 SHRA RA FEW012 SCT018CB BKN022 BECMG 2716/2718 25010KT FEW030